Aviation Digital Data Service (ADDS)

Output produced by TAFs form (1509 UTC 21 October 2014)
found at http://aviationweather.gov/adds/tafs/
 
KCNY 211120Z 2112/2212 13005KT P6SM SCT120 
     FM211400 VRB03KT P6SM VCSH SCT060 BKN100 
     FM211800 34010KT P6SM SCT060 BKN090 
     FM220000 26009KT P6SM BKN150 
     FM220600 VRB03KT P6SM BKN250